createdAt,value
2023-01-21T00:00:56.545Z,21.50
2023-01-21T00:03:23.923Z,23.63
2023-01-21T00:05:51.085Z,25.40
2023-01-21T00:08:17.913Z,27.88
2023-01-21T00:10:44.768Z,24.45
2023-01-21T00:13:11.556Z,23.80
2023-01-21T00:15:38.290Z,22.58
2023-01-21T00:18:05.070Z,24.00
2023-01-21T00:20:32.965Z,23.55
2023-01-21T00:22:59.964Z,23.42
2023-01-21T00:25:26.667Z,23.20
2023-01-21T00:27:53.395Z,22.40
2023-01-21T00:30:20.318Z,21.90
2023-01-21T00:32:47.613Z,21.50
2023-01-21T00:35:14.756Z,21.00
2023-01-21T00:37:41.476Z,22.58
2023-01-21T00:40:08.936Z,21.33
2023-01-21T00:42:35.670Z,20.83
2023-01-21T00:45:02.584Z,22.98
2023-01-21T00:47:29.279Z,21.05
2023-01-21T00:49:56.054Z,20.45
2023-01-21T00:52:22.807Z,20.33
2023-01-21T00:54:49.522Z,20.27
2023-01-21T00:57:16.312Z,19.92
2023-01-21T00:59:43.185Z,20.17
2023-01-21T01:02:10.563Z,20.80
2023-01-21T01:04:37.334Z,20.35
2023-01-21T01:07:04.387Z,20.35
2023-01-21T01:09:31.727Z,20.48
2023-01-21T01:11:58.513Z,20.08
2023-01-21T01:14:25.236Z,19.38
2023-01-21T01:16:51.917Z,19.55
2023-01-21T01:19:18.865Z,20.08
2023-01-21T01:21:45.932Z,18.98
2023-01-21T01:24:12.614Z,18.45
2023-01-21T01:26:42.245Z,18.48
2023-01-21T01:29:13.137Z,18.50
2023-01-21T01:31:40.114Z,17.83
2023-01-21T01:34:07.251Z,17.75
2023-01-21T01:36:34.008Z,18.90
2023-01-21T01:39:00.709Z,18.42
2023-01-21T01:41:29.994Z,17.10
2023-01-21T01:44:02.469Z,18.55
2023-01-21T01:46:31.902Z,19.30
2023-01-21T01:49:13.377Z,19.00
2023-01-21T01:51:54.929Z,18.25
2023-01-21T01:54:28.554Z,18.45
2023-01-21T01:57:00.192Z,18.92
2023-01-21T01:59:27.823Z,18.08
2023-01-21T02:01:56.605Z,18.83
2023-01-21T02:04:29.070Z,19.15
2023-01-21T02:06:57.094Z,19.77
2023-01-21T02:09:29.696Z,17.33
2023-01-21T02:12:02.268Z,19.38
2023-01-21T02:14:30.471Z,18.65
2023-01-21T02:17:15.588Z,18.70
2023-01-21T02:20:00.863Z,19.30
2023-01-21T02:22:53.626Z,19.02
2023-01-21T02:25:38.649Z,18.75
2023-01-21T02:28:37.913Z,19.88
2023-01-21T02:31:30.668Z,18.73
2023-01-21T02:34:22.237Z,19.17
2023-01-21T02:37:06.042Z,20.60
2023-01-21T02:39:48.841Z,15.57
2023-01-21T02:42:33.802Z,19.27
2023-01-21T02:45:16.176Z,20.70
2023-01-21T02:47:42.825Z,21.20
2023-01-21T02:50:20.863Z,19.75
2023-01-21T02:53:01.396Z,19.08
2023-01-21T02:55:32.286Z,19.30
2023-01-21T02:58:03.364Z,18.75
2023-01-21T03:00:41.173Z,18.63
2023-01-21T03:03:56.015Z,19.25
2023-01-21T03:06:53.461Z,15.27
2023-01-21T03:09:29.365Z,18.85
2023-01-21T03:12:14.543Z,19.80
2023-01-21T03:15:12.087Z,18.25
2023-01-21T03:17:57.670Z,18.83
2023-01-21T03:20:37.664Z,18.23
2023-01-21T03:23:10.302Z,18.85
2023-01-21T03:25:38.167Z,19.13
2023-01-21T03:28:11.477Z,19.60
2023-01-21T03:30:43.208Z,15.60
2023-01-21T03:33:12.035Z,20.98
2023-01-21T03:35:43.408Z,18.90
2023-01-21T03:38:31.503Z,20.33
2023-01-21T03:41:08.515Z,19.75
2023-01-21T03:43:35.628Z,20.33
2023-01-21T03:46:13.938Z,19.63
2023-01-21T03:49:04.415Z,20.05
2023-01-21T03:51:38.249Z,20.17
2023-01-21T03:54:04.909Z,20.02
2023-01-21T03:56:31.605Z,18.90
2023-01-21T03:58:58.317Z,19.85
2023-01-21T04:01:25.073Z,19.55
2023-01-21T04:03:51.750Z,21.65
2023-01-21T04:06:20.793Z,20.80
2023-01-21T04:08:47.662Z,20.83
2023-01-21T04:11:14.808Z,21.05
2023-01-21T04:13:41.493Z,21.98
2023-01-21T04:16:08.528Z,21.65
2023-01-21T04:18:35.517Z,20.15
2023-01-21T04:21:02.548Z,21.77
2023-01-21T04:23:29.329Z,21.17
2023-01-21T04:25:56.124Z,21.30
2023-01-21T04:28:22.823Z,21.15
2023-01-21T04:30:52.712Z,21.85
2023-01-21T04:33:19.407Z,21.63
2023-01-21T04:35:46.140Z,21.33
2023-01-21T04:38:13.099Z,20.83
2023-01-21T04:40:39.813Z,21.77
2023-01-21T04:43:06.483Z,21.40
2023-01-21T04:45:33.514Z,21.38
2023-01-21T04:48:00.209Z,22.15
2023-01-21T04:50:27.007Z,22.23
2023-01-21T04:52:53.673Z,20.75
2023-01-21T04:55:20.430Z,20.85
2023-01-21T04:57:47.135Z,20.50
2023-01-21T05:00:14.361Z,20.42
2023-01-21T05:02:41.070Z,19.88
2023-01-21T05:05:08.523Z,20.35
2023-01-21T05:07:35.483Z,19.33
2023-01-21T05:10:02.164Z,20.88
2023-01-21T05:12:28.977Z,21.65
2023-01-21T05:14:57.819Z,21.35
2023-01-21T05:17:24.752Z,19.88
2023-01-21T05:19:51.539Z,21.27
2023-01-21T05:22:18.952Z,21.23
2023-01-21T05:24:45.662Z,22.23
2023-01-21T05:27:12.319Z,22.55
2023-01-21T05:29:39.822Z,22.33
2023-01-21T05:32:06.507Z,21.85
2023-01-21T05:34:33.412Z,21.25
2023-01-21T05:37:00.114Z,21.48
2023-01-21T05:39:26.755Z,21.48
2023-01-21T05:41:53.417Z,23.02
2023-01-21T05:44:20.046Z,23.02
2023-01-21T05:46:46.706Z,23.20
2023-01-21T05:49:13.410Z,22.52
2023-01-21T05:51:40.070Z,22.92
2023-01-21T05:54:06.748Z,22.70
2023-01-21T05:56:33.520Z,22.70
2023-01-21T05:59:00.201Z,22.67
2023-01-21T06:01:27.035Z,23.63
2023-01-21T06:03:53.789Z,23.45
2023-01-21T06:06:21.555Z,23.08
2023-01-21T06:08:48.225Z,22.92
2023-01-21T06:11:14.900Z,22.52
2023-01-21T06:13:41.593Z,23.33
2023-01-21T06:16:08.328Z,22.40
2023-01-21T06:18:35.107Z,21.83
2023-01-21T06:21:01.937Z,22.20
2023-01-21T06:23:28.769Z,21.52
2023-01-21T06:26:00.703Z,23.23
2023-01-21T06:28:27.561Z,21.55
2023-01-21T06:30:54.420Z,23.08
2023-01-21T06:33:21.142Z,23.75
2023-01-21T06:35:47.801Z,23.98
2023-01-21T06:38:15.008Z,23.55
2023-01-21T06:40:43.002Z,22.45
2023-01-21T06:43:09.862Z,22.58
2023-01-21T06:45:36.560Z,21.55
2023-01-21T06:48:03.536Z,20.17
2023-01-21T06:50:30.265Z,20.42
2023-01-21T06:52:57.013Z,21.02
2023-01-21T06:55:23.689Z,21.92
2023-01-21T06:57:50.389Z,21.00
2023-01-21T07:00:18.596Z,20.67
2023-01-21T07:02:45.567Z,21.55
2023-01-21T07:05:15.190Z,20.17
2023-01-21T07:07:42.174Z,20.50
2023-01-21T07:10:09.618Z,20.55
2023-01-21T07:12:36.356Z,20.45
2023-01-21T07:15:03.166Z,20.48
2023-01-21T07:17:29.877Z,20.05
2023-01-21T07:19:56.581Z,20.42
2023-01-21T07:22:23.274Z,19.02
2023-01-21T07:24:50.193Z,18.85
2023-01-21T07:27:16.978Z,19.88
2023-01-21T07:29:43.788Z,20.15
2023-01-21T07:32:10.425Z,19.38
2023-01-21T07:34:37.085Z,19.05
2023-01-21T07:37:03.921Z,18.38
2023-01-21T07:39:30.598Z,18.80
2023-01-21T07:41:57.396Z,18.45
2023-01-21T07:44:24.056Z,17.52
2023-01-21T07:46:51.230Z,16.58
2023-01-21T07:49:18.492Z,17.33
2023-01-21T07:51:45.870Z,16.50
2023-01-21T07:54:13.372Z,17.02
2023-01-21T07:56:40.811Z,16.42
2023-01-21T07:59:07.712Z,17.27
2023-01-21T08:01:34.504Z,16.45
2023-01-21T08:04:01.263Z,16.27
2023-01-21T08:06:27.948Z,17.30
2023-01-21T08:08:54.724Z,17.25
2023-01-21T08:11:21.529Z,18.17
2023-01-21T08:13:50.200Z,17.30
2023-01-21T08:16:17.450Z,17.92
2023-01-21T08:18:44.211Z,16.30
2023-01-21T08:21:10.984Z,17.33
2023-01-21T08:23:37.699Z,16.60
2023-01-21T08:26:05.836Z,15.88
2023-01-21T08:28:33.363Z,16.45
2023-01-21T08:31:09.248Z,15.75
2023-01-21T08:33:36.096Z,16.38
2023-01-21T08:36:06.059Z,16.30
2023-01-21T08:38:33.769Z,16.13
2023-01-21T08:41:00.656Z,16.48
2023-01-21T08:43:27.493Z,16.13
2023-01-21T08:45:58.619Z,16.65
2023-01-21T08:48:25.460Z,17.27
2023-01-21T08:50:52.209Z,16.85
2023-01-21T08:53:19.130Z,16.35
2023-01-21T08:55:45.880Z,16.15
2023-01-21T08:58:12.681Z,16.05
2023-01-21T09:00:39.559Z,16.42
2023-01-21T09:03:06.300Z,16.95
2023-01-21T09:05:33.064Z,17.70
2023-01-21T09:07:59.815Z,17.63
2023-01-21T09:10:45.013Z,17.92
2023-01-21T09:13:11.840Z,17.38
2023-01-21T09:15:40.175Z,17.90
2023-01-21T09:18:07.232Z,16.90
2023-01-21T09:20:34.159Z,17.60
2023-01-21T09:23:00.873Z,17.25
2023-01-21T09:25:27.923Z,17.67
2023-01-21T09:27:54.640Z,17.13
2023-01-21T09:30:21.387Z,16.83
2023-01-21T09:32:48.052Z,17.20
2023-01-21T09:35:15.058Z,17.10
2023-01-21T09:37:41.914Z,17.58
2023-01-21T09:40:16.200Z,15.98
2023-01-21T09:45:14.687Z,16.95
2023-01-21T09:47:44.950Z,16.80
2023-01-21T09:50:16.618Z,16.00
2023-01-21T09:52:50.644Z,17.45
2023-01-21T09:55:43.765Z,16.00
2023-01-21T09:58:25.146Z,18.13
2023-01-21T10:00:58.801Z,17.95
2023-01-21T10:03:50.535Z,12.48
2023-01-21T10:06:20.447Z,18.10
2023-01-21T10:09:25.094Z,18.00
2023-01-21T10:12:10.312Z,13.02
2023-01-21T10:14:47.862Z,17.30
2023-01-21T10:17:23.609Z,18.05
2023-01-21T10:20:10.372Z,17.52
2023-01-21T10:22:40.062Z,17.52
2023-01-21T10:25:24.794Z,17.17
2023-01-21T10:27:52.424Z,16.63
2023-01-21T10:30:27.468Z,16.75
2023-01-21T10:32:55.993Z,15.98
2023-01-21T10:35:46.036Z,17.17
2023-01-21T10:38:18.195Z,17.52
2023-01-21T10:41:29.602Z,16.88
2023-01-21T10:44:18.077Z,16.35
2023-01-21T10:46:56.360Z,16.70
2023-01-21T10:49:25.980Z,16.48
2023-01-21T10:52:19.087Z,16.92
2023-01-21T10:54:52.132Z,16.48
2023-01-21T10:57:41.232Z,16.00
2023-01-21T11:00:23.028Z,16.08
2023-01-21T11:02:55.682Z,15.77
2023-01-21T11:05:25.173Z,15.35
2023-01-21T11:07:52.784Z,15.88
2023-01-21T11:10:25.835Z,15.85
2023-01-21T11:12:54.798Z,14.98
2023-01-21T11:15:22.272Z,15.27
2023-01-21T11:17:53.047Z,16.10
2023-01-21T11:20:35.333Z,14.93
2023-01-21T11:23:05.223Z,15.73
2023-01-21T11:25:41.434Z,16.20
2023-01-21T11:28:26.333Z,13.82
2023-01-21T11:31:12.474Z,14.75
2023-01-21T11:33:40.235Z,15.00
2023-01-21T11:36:18.210Z,14.32
2023-01-21T11:38:47.428Z,15.10
2023-01-21T11:41:22.370Z,14.27
2023-01-21T11:43:55.084Z,14.27
2023-01-21T11:46:41.128Z,14.43
2023-01-21T11:49:07.737Z,14.00
2023-01-21T11:51:39.664Z,14.25
2023-01-21T11:54:14.321Z,14.50
2023-01-21T11:56:51.333Z,13.77
2023-01-21T11:59:34.254Z,13.10
2023-01-21T12:02:29.661Z,14.40
2023-01-21T12:05:04.649Z,14.05
2023-01-21T12:07:36.297Z,14.00
2023-01-21T12:10:28.370Z,14.52
2023-01-21T12:13:01.151Z,14.32
2023-01-21T12:15:50.470Z,14.25
2023-01-21T12:18:54.891Z,14.85
2023-01-21T12:21:29.463Z,12.53
2023-01-21T12:24:08.266Z,13.55
2023-01-21T12:26:47.492Z,13.55
2023-01-21T12:29:20.847Z,13.90
2023-01-21T12:31:58.244Z,13.63
2023-01-21T12:34:40.799Z,14.05
2023-01-21T12:37:22.628Z,15.00
2023-01-21T12:39:52.783Z,13.60
2023-01-21T12:42:21.824Z,14.45
2023-01-21T12:44:57.430Z,14.85
2023-01-21T12:47:32.568Z,14.95
2023-01-21T12:50:07.384Z,15.30
2023-01-21T12:53:07.993Z,16.20
2023-01-21T12:56:00.781Z,15.18
2023-01-21T12:58:32.909Z,14.13
2023-01-21T13:01:07.603Z,14.65
2023-01-21T13:03:43.280Z,15.30
2023-01-21T13:06:17.047Z,15.13
2023-01-21T13:09:11.708Z,14.60
2023-01-21T13:11:54.702Z,13.88
2023-01-21T13:14:36.502Z,13.07
2023-01-21T13:17:13.077Z,13.52
2023-01-21T13:19:40.340Z,13.93
2023-01-21T13:22:40.382Z,13.95
2023-01-21T13:25:29.876Z,13.80
2023-01-21T13:28:21.340Z,15.00
2023-01-21T13:31:01.150Z,14.57
2023-01-21T13:33:53.846Z,15.20
2023-01-21T13:36:38.629Z,15.02
2023-01-21T13:39:46.991Z,15.40
2023-01-21T13:42:16.488Z,15.00
2023-01-21T13:45:15.981Z,14.45
2023-01-21T13:47:53.377Z,15.60
2023-01-21T13:50:22.876Z,15.57
2023-01-21T13:53:22.903Z,15.77
2023-01-21T13:56:11.584Z,14.77
2023-01-21T13:58:44.733Z,14.82
2023-01-21T14:01:29.786Z,14.63
2023-01-21T14:04:05.493Z,15.93
2023-01-21T14:06:59.175Z,15.38
2023-01-21T14:09:37.162Z,15.07
2023-01-21T14:12:20.414Z,15.57
2023-01-21T14:15:08.335Z,14.55
2023-01-21T14:18:03.221Z,15.57
2023-01-21T14:23:20.932Z,14.57
2023-01-21T14:25:59.638Z,15.80
2023-01-21T14:28:34.230Z,15.75
2023-01-21T14:31:04.539Z,14.90
2023-01-21T14:33:50.261Z,15.77
2023-01-21T14:36:35.270Z,15.70
2023-01-21T14:39:21.568Z,16.08
2023-01-21T14:42:10.252Z,15.32
2023-01-21T14:45:04.964Z,15.23
2023-01-21T14:47:31.647Z,15.20
2023-01-21T14:49:59.482Z,15.13
2023-01-21T14:52:51.463Z,16.45
2023-01-21T14:55:26.420Z,16.15
2023-01-21T14:57:54.681Z,16.20
2023-01-21T15:00:28.030Z,15.32
2023-01-21T15:03:27.153Z,15.00
2023-01-21T15:06:00.567Z,15.05
2023-01-21T15:08:45.609Z,14.93
2023-01-21T15:11:21.384Z,15.30
2023-01-21T15:14:13.586Z,15.38
2023-01-21T15:16:42.960Z,15.13
2023-01-21T15:19:12.871Z,14.38
2023-01-21T15:21:45.321Z,14.88
2023-01-21T15:24:24.460Z,14.20
2023-01-21T15:27:14.270Z,14.82
2023-01-21T15:29:54.419Z,14.80
2023-01-21T15:32:23.947Z,14.85
2023-01-21T15:34:57.851Z,15.02
2023-01-21T15:37:26.216Z,14.45
2023-01-21T15:40:00.410Z,15.48
2023-01-21T15:45:23.620Z,14.63
2023-01-21T15:48:15.590Z,15.15
2023-01-21T15:51:00.735Z,15.40
2023-01-21T15:53:39.509Z,14.70
2023-01-21T15:56:37.431Z,15.32
2023-01-21T15:59:31.350Z,14.27
2023-01-21T16:02:21.969Z,13.48
2023-01-21T16:05:19.534Z,14.50
2023-01-21T16:08:24.032Z,14.48
2023-01-21T16:11:40.559Z,10.80
2023-01-21T16:14:44.774Z,14.25
2023-01-21T16:17:25.029Z,14.18
2023-01-21T16:19:54.824Z,13.88
2023-01-21T16:22:27.175Z,14.00
2023-01-21T16:25:07.925Z,14.18
2023-01-21T16:27:36.057Z,13.95
2023-01-21T16:30:06.991Z,11.85
2023-01-21T16:32:33.883Z,12.07
2023-01-21T16:35:01.027Z,12.90
2023-01-21T16:37:29.919Z,10.85
2023-01-21T16:40:31.973Z,11.10
2023-01-21T16:43:07.004Z,10.70
2023-01-21T16:45:33.730Z,11.05
2023-01-21T16:48:00.801Z,10.70
2023-01-21T16:50:30.403Z,10.52
2023-01-21T16:52:58.907Z,9.88
2023-01-21T16:55:28.063Z,10.50
2023-01-21T16:57:59.856Z,9.70
2023-01-21T17:00:32.094Z,10.07
2023-01-21T17:03:00.250Z,8.60
2023-01-21T17:05:30.674Z,9.55
2023-01-21T17:07:59.616Z,9.52
2023-01-21T17:10:39.932Z,9.50
2023-01-21T17:13:14.165Z,9.55
2023-01-21T17:18:21.265Z,9.45
2023-01-21T17:20:53.852Z,9.18
2023-01-21T17:23:29.935Z,9.70
2023-01-21T17:26:03.393Z,9.82
2023-01-21T17:28:40.131Z,9.38
2023-01-21T17:31:16.050Z,8.75
2023-01-21T17:33:43.813Z,9.45
2023-01-21T17:36:15.742Z,10.07
2023-01-21T17:38:45.437Z,9.25
2023-01-21T17:41:27.154Z,8.90
2023-01-21T17:43:58.253Z,9.38
2023-01-21T17:46:25.401Z,10.05
2023-01-21T17:48:57.921Z,10.25
2023-01-21T17:51:28.333Z,9.60
2023-01-21T17:53:58.921Z,9.75
2023-01-21T17:56:42.111Z,9.95
2023-01-21T17:59:31.377Z,9.52
2023-01-21T18:01:58.388Z,9.35
2023-01-21T18:04:25.117Z,10.10
2023-01-21T18:06:53.149Z,9.90
2023-01-21T18:09:21.295Z,9.55
2023-01-21T18:11:49.324Z,10.10
2023-01-21T18:14:18.355Z,9.40
2023-01-21T18:16:45.773Z,10.38
2023-01-21T18:19:34.647Z,10.35
2023-01-21T18:22:04.174Z,9.98
2023-01-21T18:24:31.312Z,10.20
2023-01-21T18:27:00.014Z,9.68
2023-01-21T18:29:30.607Z,10.48
2023-01-21T18:31:58.773Z,10.80
2023-01-21T18:34:25.588Z,10.38
2023-01-21T18:36:52.432Z,10.73
2023-01-21T18:39:19.994Z,10.43
2023-01-21T18:41:47.353Z,10.68
2023-01-21T18:44:14.805Z,11.10
2023-01-21T18:46:43.210Z,11.00
2023-01-21T18:49:19.282Z,10.60
2023-01-21T18:51:46.431Z,9.30
2023-01-21T18:54:18.037Z,11.07
2023-01-21T18:56:46.069Z,10.40
2023-01-21T18:59:18.038Z,10.10
2023-01-21T19:01:45.535Z,9.52
2023-01-21T19:04:15.817Z,10.13
2023-01-21T19:06:42.941Z,9.60
2023-01-21T19:09:35.706Z,10.80
2023-01-21T19:12:02.462Z,10.57
2023-01-21T19:14:29.143Z,9.98
2023-01-21T19:16:55.927Z,10.32
2023-01-21T19:19:25.095Z,9.68
2023-01-21T19:21:53.501Z,10.70
2023-01-21T19:24:20.186Z,9.40
2023-01-21T19:26:47.021Z,10.60
2023-01-21T19:29:15.672Z,10.25
2023-01-21T19:31:42.560Z,9.95
2023-01-21T19:34:10.435Z,9.50
2023-01-21T19:36:38.030Z,10.82
2023-01-21T19:39:15.774Z,10.90
2023-01-21T19:41:42.489Z,11.00
2023-01-21T19:44:09.320Z,10.35
2023-01-21T19:46:36.081Z,10.10
2023-01-21T19:49:12.449Z,9.40
2023-01-21T19:51:39.192Z,9.80
2023-01-21T19:54:06.095Z,10.43
2023-01-21T19:56:32.866Z,10.85
2023-01-21T19:59:00.165Z,11.00
2023-01-21T20:01:26.832Z,11.38
2023-01-21T20:04:00.215Z,11.23
2023-01-21T20:08:58.773Z,9.85
2023-01-21T20:11:25.424Z,9.57
2023-01-21T20:13:52.108Z,10.02
2023-01-21T20:16:21.063Z,10.38
2023-01-21T20:18:49.335Z,10.30
2023-01-21T20:21:16.651Z,9.40
2023-01-21T20:23:43.443Z,10.65
2023-01-21T20:26:18.086Z,10.52
2023-01-21T20:28:47.805Z,11.27
2023-01-21T20:31:14.683Z,10.40
2023-01-21T20:33:43.817Z,10.65
2023-01-21T20:36:20.038Z,10.63
2023-01-21T20:38:46.813Z,10.68
2023-01-21T20:41:13.853Z,11.13
2023-01-21T20:43:40.738Z,10.88
2023-01-21T20:46:16.973Z,10.52
2023-01-21T20:48:44.910Z,9.80
2023-01-21T20:51:11.929Z,9.80
2023-01-21T20:53:38.895Z,9.70
2023-01-21T20:56:23.937Z,9.82
2023-01-21T20:58:50.668Z,9.85
2023-01-21T21:01:20.009Z,10.05
2023-01-21T21:03:46.902Z,10.05
2023-01-21T21:06:16.474Z,9.38
2023-01-21T21:08:43.993Z,10.38
2023-01-21T21:11:10.951Z,9.70
2023-01-21T21:13:37.685Z,10.35
2023-01-21T21:16:23.243Z,10.18
2023-01-21T21:18:50.428Z,10.23
2023-01-21T21:21:18.332Z,10.25
2023-01-21T21:23:48.076Z,9.93
2023-01-21T21:26:22.975Z,11.25
2023-01-21T21:28:51.237Z,10.75
2023-01-21T21:31:18.119Z,10.65
2023-01-21T21:33:44.979Z,10.10
2023-01-21T21:36:16.001Z,11.30
2023-01-21T21:38:43.814Z,10.52
2023-01-21T21:41:35.621Z,10.73
2023-01-21T21:44:02.788Z,10.25
2023-01-21T21:46:48.113Z,10.02
2023-01-21T21:49:15.189Z,9.70
2023-01-21T21:51:43.515Z,10.05
2023-01-21T21:54:14.126Z,10.00
2023-01-21T21:56:42.697Z,10.10
2023-01-21T21:59:10.358Z,10.93
2023-01-21T22:01:37.449Z,10.00
2023-01-21T22:04:04.904Z,11.05
2023-01-21T22:06:33.294Z,10.60
2023-01-21T22:09:00.050Z,11.00
2023-01-21T22:11:28.455Z,10.52
2023-01-21T22:13:55.713Z,10.77
2023-01-21T22:16:24.961Z,10.35
2023-01-21T22:18:52.762Z,10.43
2023-01-21T22:21:21.834Z,10.70
2023-01-21T22:23:49.346Z,11.15
2023-01-21T22:26:18.619Z,10.82
2023-01-21T22:28:46.177Z,11.35
2023-01-21T22:31:19.982Z,10.98
2023-01-21T22:33:46.985Z,11.40
2023-01-21T22:36:16.057Z,11.07
2023-01-21T22:38:43.883Z,11.05
2023-01-21T22:41:12.796Z,11.88
2023-01-21T22:43:41.864Z,11.82
2023-01-21T22:46:11.254Z,11.80
2023-01-21T22:48:38.115Z,11.23
2023-01-21T22:51:05.063Z,11.40
2023-01-21T22:53:34.047Z,11.27
2023-01-21T22:56:03.577Z,11.30
2023-01-21T22:58:32.399Z,10.20
2023-01-21T23:01:00.863Z,11.65
2023-01-21T23:03:28.287Z,10.35
2023-01-21T23:06:01.622Z,10.35
2023-01-21T23:08:28.270Z,10.80
2023-01-21T23:11:01.552Z,10.23
2023-01-21T23:13:28.325Z,7.72
2023-01-21T23:15:56.184Z,11.98
2023-01-21T23:18:25.868Z,11.30
2023-01-21T23:20:52.650Z,11.60
2023-01-21T23:23:19.422Z,11.52
2023-01-21T23:25:46.632Z,11.38
2023-01-21T23:28:14.468Z,11.35
2023-01-21T23:30:41.727Z,11.38
2023-01-21T23:33:08.885Z,11.73
2023-01-21T23:35:35.606Z,11.52
2023-01-21T23:38:03.679Z,11.52
2023-01-21T23:40:30.553Z,11.98
2023-01-21T23:42:57.780Z,12.73
2023-01-21T23:45:24.527Z,12.30
2023-01-21T23:47:51.261Z,12.00
2023-01-21T23:50:18.357Z,11.65
2023-01-21T23:52:45.239Z,12.43
2023-01-21T23:55:12.931Z,12.07
2023-01-21T23:57:39.665Z,12.90
